sensor_id;sensor_type;location;lat;lon;timestamp;temperature;humidity
13892;DHT22;7016;48.172;8.058;2022-10-16T00:01:08;14.70;99.90
13892;DHT22;7016;48.172;8.058;2022-10-16T00:03:35;14.70;99.90
13892;DHT22;7016;48.172;8.058;2022-10-16T00:06:01;14.70;99.90
13892;DHT22;7016;48.172;8.058;2022-10-16T00:08:27;14.80;99.90
13892;DHT22;7016;48.172;8.058;2022-10-16T00:11:12;14.80;99.90
13892;DHT22;7016;48.172;8.058;2022-10-16T00:13:40;14.80;99.90
13892;DHT22;7016;48.172;8.058;2022-10-16T00:16:06;14.80;99.90
13892;DHT22;7016;48.172;8.058;2022-10-16T00:18:33;14.70;99.90
13892;DHT22;7016;48.172;8.058;2022-10-16T00:21:07;14.70;99.90
13892;DHT22;7016;48.172;8.058;2022-10-16T00:23:33;14.70;99.90
13892;DHT22;7016;48.172;8.058;2022-10-16T00:26:02;14.70;99.90
13892;DHT22;7016;48.172;8.058;2022-10-16T00:28:29;14.70;99.90
13892;DHT22;7016;48.172;8.058;2022-10-16T00:30:55;14.70;99.90
13892;DHT22;7016;48.172;8.058;2022-10-16T00:33:20;14.70;99.90
13892;DHT22;7016;48.172;8.058;2022-10-16T00:35:46;14.70;99.90
13892;DHT22;7016;48.172;8.058;2022-10-16T00:38:12;14.80;99.90
13892;DHT22;7016;48.172;8.058;2022-10-16T00:40:38;14.70;99.90
13892;DHT22;7016;48.172;8.058;2022-10-16T00:43:32;14.60;99.90
13892;DHT22;7016;48.172;8.058;2022-10-16T00:45:58;14.60;99.90
13892;DHT22;7016;48.172;8.058;2022-10-16T00:48:24;14.60;99.90
13892;DHT22;7016;48.172;8.058;2022-10-16T00:50:50;14.70;99.90
13892;DHT22;7016;48.172;8.058;2022-10-16T00:53:16;14.70;99.90
13892;DHT22;7016;48.172;8.058;2022-10-16T00:55:42;14.80;99.90
13892;DHT22;7016;48.172;8.058;2022-10-16T00:58:09;14.80;99.90
13892;DHT22;7016;48.172;8.058;2022-10-16T01:00:35;14.70;99.90
13892;DHT22;7016;48.172;8.058;2022-10-16T01:03:02;14.70;99.90
13892;DHT22;7016;48.172;8.058;2022-10-16T01:05:42;14.70;99.90
13892;DHT22;7016;48.172;8.058;2022-10-16T01:08:22;14.70;99.90
13892;DHT22;7016;48.172;8.058;2022-10-16T01:11:22;14.80;99.90
13892;DHT22;7016;48.172;8.058;2022-10-16T01:13:54;14.80;99.90
13892;DHT22;7016;48.172;8.058;2022-10-16T01:21:39;14.70;99.90
13892;DHT22;7016;48.172;8.058;2022-10-16T01:24:27;14.70;99.90
13892;DHT22;7016;48.172;8.058;2022-10-16T01:40:34;14.50;99.90
13892;DHT22;7016;48.172;8.058;2022-10-16T01:43:22;14.60;99.90
13892;DHT22;7016;48.172;8.058;2022-10-16T01:45:48;14.50;99.90
13892;DHT22;7016;48.172;8.058;2022-10-16T01:48:18;14.40;99.90
13892;DHT22;7016;48.172;8.058;2022-10-16T01:50:57;14.60;99.90
13892;DHT22;7016;48.172;8.058;2022-10-16T01:53:25;14.60;99.90
13892;DHT22;7016;48.172;8.058;2022-10-16T01:55:52;14.60;99.90
13892;DHT22;7016;48.172;8.058;2022-10-16T01:58:20;14.50;99.90
13892;DHT22;7016;48.172;8.058;2022-10-16T02:00:47;14.50;99.90
13892;DHT22;7016;48.172;8.058;2022-10-16T02:03:16;14.50;99.90
13892;DHT22;7016;48.172;8.058;2022-10-16T02:05:47;14.60;99.90
13892;DHT22;7016;48.172;8.058;2022-10-16T02:08:14;14.50;99.90
13892;DHT22;7016;48.172;8.058;2022-10-16T02:10:40;14.50;99.90
13892;DHT22;7016;48.172;8.058;2022-10-16T02:15:39;14.40;99.90
13892;DHT22;7016;48.172;8.058;2022-10-16T02:18:06;14.40;99.90
13892;DHT22;7016;48.172;8.058;2022-10-16T02:20:55;14.40;99.90
13892;DHT22;7016;48.172;8.058;2022-10-16T02:23:56;14.40;99.90
13892;DHT22;7016;48.172;8.058;2022-10-16T02:27:13;14.30;99.90
13892;DHT22;7016;48.172;8.058;2022-10-16T02:29:24;14.40;99.90
13892;DHT22;7016;48.172;8.058;2022-10-16T02:31:53;14.30;99.90
13892;DHT22;7016;48.172;8.058;2022-10-16T02:34:22;14.30;99.90
13892;DHT22;7016;48.172;8.058;2022-10-16T02:36:50;14.20;99.90
13892;DHT22;7016;48.172;8.058;2022-10-16T02:39:18;14.30;99.90
13892;DHT22;7016;48.172;8.058;2022-10-16T02:41:44;14.40;99.90
13892;DHT22;7016;48.172;8.058;2022-10-16T02:44:09;14.30;99.90
13892;DHT22;7016;48.172;8.058;2022-10-16T02:46:35;14.40;99.90
13892;DHT22;7016;48.172;8.058;2022-10-16T02:49:01;14.30;99.90
13892;DHT22;7016;48.172;8.058;2022-10-16T02:51:27;14.30;99.90
13892;DHT22;7016;48.172;8.058;2022-10-16T02:53:52;14.20;99.90
13892;DHT22;7016;48.172;8.058;2022-10-16T02:56:18;14.30;99.90
13892;DHT22;7016;48.172;8.058;2022-10-16T02:58:44;14.10;99.90
13892;DHT22;7016;48.172;8.058;2022-10-16T03:01:10;14.10;99.90
13892;DHT22;7016;48.172;8.058;2022-10-16T03:03:38;14.10;99.90
13892;DHT22;7016;48.172;8.058;2022-10-16T03:06:04;14.10;99.90
13892;DHT22;7016;48.172;8.058;2022-10-16T03:08:30;14.10;99.90
13892;DHT22;7016;48.172;8.058;2022-10-16T03:10:56;14.20;99.90
13892;DHT22;7016;48.172;8.058;2022-10-16T03:13:22;14.20;99.90
13892;DHT22;7016;48.172;8.058;2022-10-16T03:15:48;14.30;99.90
13892;DHT22;7016;48.172;8.058;2022-10-16T03:18:14;14.30;99.90
13892;DHT22;7016;48.172;8.058;2022-10-16T03:20:40;14.40;99.90
13892;DHT22;7016;48.172;8.058;2022-10-16T03:23:06;14.30;99.90
13892;DHT22;7016;48.172;8.058;2022-10-16T03:25:33;14.30;99.90
13892;DHT22;7016;48.172;8.058;2022-10-16T03:27:59;14.30;99.90
13892;DHT22;7016;48.172;8.058;2022-10-16T03:30:25;14.30;99.90
13892;DHT22;7016;48.172;8.058;2022-10-16T03:32:50;14.40;99.90
13892;DHT22;7016;48.172;8.058;2022-10-16T03:35:23;14.40;99.90
13892;DHT22;7016;48.172;8.058;2022-10-16T03:37:49;14.30;99.90
13892;DHT22;7016;48.172;8.058;2022-10-16T03:40:16;14.30;99.90
13892;DHT22;7016;48.172;8.058;2022-10-16T03:42:43;14.30;99.90
13892;DHT22;7016;48.172;8.058;2022-10-16T03:45:09;14.20;99.90
13892;DHT22;7016;48.172;8.058;2022-10-16T03:47:35;14.20;99.90
13892;DHT22;7016;48.172;8.058;2022-10-16T03:50:01;14.10;99.90
13892;DHT22;7016;48.172;8.058;2022-10-16T03:52:26;14.10;99.90
13892;DHT22;7016;48.172;8.058;2022-10-16T03:54:52;14.10;99.90
13892;DHT22;7016;48.172;8.058;2022-10-16T03:57:18;14.10;99.90
13892;DHT22;7016;48.172;8.058;2022-10-16T03:59:44;14.20;99.90
13892;DHT22;7016;48.172;8.058;2022-10-16T04:02:09;14.20;99.90
13892;DHT22;7016;48.172;8.058;2022-10-16T04:04:35;14.30;99.90
13892;DHT22;7016;48.172;8.058;2022-10-16T04:07:01;14.20;99.90
13892;DHT22;7016;48.172;8.058;2022-10-16T04:09:27;14.30;99.90
13892;DHT22;7016;48.172;8.058;2022-10-16T04:11:53;14.20;99.90
13892;DHT22;7016;48.172;8.058;2022-10-16T04:14:18;14.10;99.90
13892;DHT22;7016;48.172;8.058;2022-10-16T04:16:44;14.20;99.90
13892;DHT22;7016;48.172;8.058;2022-10-16T04:19:11;14.10;99.90
13892;DHT22;7016;48.172;8.058;2022-10-16T04:21:37;14.20;99.90
13892;DHT22;7016;48.172;8.058;2022-10-16T04:24:03;14.20;99.90
13892;DHT22;7016;48.172;8.058;2022-10-16T04:26:29;14.20;99.90
13892;DHT22;7016;48.172;8.058;2022-10-16T04:28:55;14.20;99.90
13892;DHT22;7016;48.172;8.058;2022-10-16T04:31:20;14.20;99.90
13892;DHT22;7016;48.172;8.058;2022-10-16T04:33:46;14.20;99.90
13892;DHT22;7016;48.172;8.058;2022-10-16T04:36:12;14.20;99.90
13892;DHT22;7016;48.172;8.058;2022-10-16T04:38:38;14.20;99.90
13892;DHT22;7016;48.172;8.058;2022-10-16T04:41:05;14.20;99.90
13892;DHT22;7016;48.172;8.058;2022-10-16T04:43:31;14.20;99.90
13892;DHT22;7016;48.172;8.058;2022-10-16T04:45:57;14.30;99.90
13892;DHT22;7016;48.172;8.058;2022-10-16T04:48:23;14.30;99.90
13892;DHT22;7016;48.172;8.058;2022-10-16T04:50:48;14.40;99.90
13892;DHT22;7016;48.172;8.058;2022-10-16T04:53:14;14.40;99.90
13892;DHT22;7016;48.172;8.058;2022-10-16T04:55:41;14.40;99.90
13892;DHT22;7016;48.172;8.058;2022-10-16T04:58:07;14.40;99.90
13892;DHT22;7016;48.172;8.058;2022-10-16T05:00:33;14.40;99.90
13892;DHT22;7016;48.172;8.058;2022-10-16T05:02:59;14.40;99.90
13892;DHT22;7016;48.172;8.058;2022-10-16T05:05:26;14.30;99.90
13892;DHT22;7016;48.172;8.058;2022-10-16T05:07:53;14.30;99.90
13892;DHT22;7016;48.172;8.058;2022-10-16T05:10:19;14.20;99.90
13892;DHT22;7016;48.172;8.058;2022-10-16T05:12:46;14.10;99.90
13892;DHT22;7016;48.172;8.058;2022-10-16T05:15:12;14.20;99.90
13892;DHT22;7016;48.172;8.058;2022-10-16T05:17:38;14.10;99.90
13892;DHT22;7016;48.172;8.058;2022-10-16T05:20:04;14.20;99.90
13892;DHT22;7016;48.172;8.058;2022-10-16T05:22:30;14.30;99.90
13892;DHT22;7016;48.172;8.058;2022-10-16T05:24:55;14.20;99.90
13892;DHT22;7016;48.172;8.058;2022-10-16T05:27:21;14.20;99.90
13892;DHT22;7016;48.172;8.058;2022-10-16T05:29:48;14.30;99.90
13892;DHT22;7016;48.172;8.058;2022-10-16T05:32:15;14.20;99.90
13892;DHT22;7016;48.172;8.058;2022-10-16T05:34:41;14.20;99.90
13892;DHT22;7016;48.172;8.058;2022-10-16T05:37:07;14.30;99.90
13892;DHT22;7016;48.172;8.058;2022-10-16T05:39:33;14.30;99.90
13892;DHT22;7016;48.172;8.058;2022-10-16T05:41:58;14.40;99.90
13892;DHT22;7016;48.172;8.058;2022-10-16T05:44:24;14.40;99.90
13892;DHT22;7016;48.172;8.058;2022-10-16T05:46:50;14.40;99.90
13892;DHT22;7016;48.172;8.058;2022-10-16T05:49:16;14.40;99.90
13892;DHT22;7016;48.172;8.058;2022-10-16T05:51:41;14.40;99.90
13892;DHT22;7016;48.172;8.058;2022-10-16T05:54:07;14.40;99.90
13892;DHT22;7016;48.172;8.058;2022-10-16T05:56:33;14.40;99.90
13892;DHT22;7016;48.172;8.058;2022-10-16T05:58:59;14.30;99.90
13892;DHT22;7016;48.172;8.058;2022-10-16T06:01:25;14.30;99.90
13892;DHT22;7016;48.172;8.058;2022-10-16T06:03:51;14.30;99.90
13892;DHT22;7016;48.172;8.058;2022-10-16T06:06:19;14.40;99.90
13892;DHT22;7016;48.172;8.058;2022-10-16T06:08:47;14.30;99.90
13892;DHT22;7016;48.172;8.058;2022-10-16T06:11:19;14.30;99.90
13892;DHT22;7016;48.172;8.058;2022-10-16T06:13:48;14.30;99.90
13892;DHT22;7016;48.172;8.058;2022-10-16T06:16:14;14.30;99.90
13892;DHT22;7016;48.172;8.058;2022-10-16T06:18:40;14.40;99.90
13892;DHT22;7016;48.172;8.058;2022-10-16T06:21:11;14.40;99.90
13892;DHT22;7016;48.172;8.058;2022-10-16T06:23:37;14.40;99.90
13892;DHT22;7016;48.172;8.058;2022-10-16T06:26:12;14.40;99.90
13892;DHT22;7016;48.172;8.058;2022-10-16T06:28:38;14.50;99.90
13892;DHT22;7016;48.172;8.058;2022-10-16T06:31:06;14.50;99.90
13892;DHT22;7016;48.172;8.058;2022-10-16T06:33:32;15.00;99.90
13892;DHT22;7016;48.172;8.058;2022-10-16T06:36:15;14.50;99.90
13892;DHT22;7016;48.172;8.058;2022-10-16T06:38:42;14.50;99.90
13892;DHT22;7016;48.172;8.058;2022-10-16T06:41:12;14.50;99.90
13892;DHT22;7016;48.172;8.058;2022-10-16T06:43:38;14.50;99.90
13892;DHT22;7016;48.172;8.058;2022-10-16T06:46:06;14.50;99.90
13892;DHT22;7016;48.172;8.058;2022-10-16T06:48:33;14.60;99.90
13892;DHT22;7016;48.172;8.058;2022-10-16T06:51:17;14.60;99.90
13892;DHT22;7016;48.172;8.058;2022-10-16T06:53:46;14.60;99.90
13892;DHT22;7016;48.172;8.058;2022-10-16T06:56:33;14.50;99.90
13892;DHT22;7016;48.172;8.058;2022-10-16T06:58:59;14.50;99.90
13892;DHT22;7016;48.172;8.058;2022-10-16T07:01:25;14.60;99.90
13892;DHT22;7016;48.172;8.058;2022-10-16T07:03:51;14.60;99.90
13892;DHT22;7016;48.172;8.058;2022-10-16T07:06:19;14.60;99.90
13892;DHT22;7016;48.172;8.058;2022-10-16T07:08:46;14.60;99.90
13892;DHT22;7016;48.172;8.058;2022-10-16T07:11:18;14.70;99.90
13892;DHT22;7016;48.172;8.058;2022-10-16T07:13:46;14.60;99.90
13892;DHT22;7016;48.172;8.058;2022-10-16T07:16:17;14.70;99.90
13892;DHT22;7016;48.172;8.058;2022-10-16T07:18:44;14.80;99.90
13892;DHT22;7016;48.172;8.058;2022-10-16T07:21:13;14.90;99.90
13892;DHT22;7016;48.172;8.058;2022-10-16T07:23:41;14.90;99.90
13892;DHT22;7016;48.172;8.058;2022-10-16T07:26:07;14.90;99.90
13892;DHT22;7016;48.172;8.058;2022-10-16T07:28:33;14.90;99.90
13892;DHT22;7016;48.172;8.058;2022-10-16T07:31:07;14.90;99.90
13892;DHT22;7016;48.172;8.058;2022-10-16T07:33:34;14.90;99.90
13892;DHT22;7016;48.172;8.058;2022-10-16T07:36:00;15.00;99.90
13892;DHT22;7016;48.172;8.058;2022-10-16T07:38:25;15.00;99.90
13892;DHT22;7016;48.172;8.058;2022-10-16T07:41:02;15.10;99.90
13892;DHT22;7016;48.172;8.058;2022-10-16T07:43:29;15.10;99.90
13892;DHT22;7016;48.172;8.058;2022-10-16T07:45:55;15.20;99.90
13892;DHT22;7016;48.172;8.058;2022-10-16T07:48:22;15.10;99.90
13892;DHT22;7016;48.172;8.058;2022-10-16T07:50:49;15.20;99.90
13892;DHT22;7016;48.172;8.058;2022-10-16T07:53:14;15.20;99.90
13892;DHT22;7016;48.172;8.058;2022-10-16T07:55:40;15.10;99.90
13892;DHT22;7016;48.172;8.058;2022-10-16T07:58:06;15.20;99.90
13892;DHT22;7016;48.172;8.058;2022-10-16T08:00:33;15.30;99.90
13892;DHT22;7016;48.172;8.058;2022-10-16T08:02:59;15.30;99.90
13892;DHT22;7016;48.172;8.058;2022-10-16T08:05:30;15.40;99.90
13892;DHT22;7016;48.172;8.058;2022-10-16T08:07:56;15.40;99.90
13892;DHT22;7016;48.172;8.058;2022-10-16T08:10:24;15.40;99.90
13892;DHT22;7016;48.172;8.058;2022-10-16T08:12:51;15.50;99.90
13892;DHT22;7016;48.172;8.058;2022-10-16T08:15:18;15.50;99.90
13892;DHT22;7016;48.172;8.058;2022-10-16T08:17:43;15.60;99.90
13892;DHT22;7016;48.172;8.058;2022-10-16T08:20:10;15.80;99.90
13892;DHT22;7016;48.172;8.058;2022-10-16T08:22:36;15.80;99.90
13892;DHT22;7016;48.172;8.058;2022-10-16T08:25:02;15.80;99.90
13892;DHT22;7016;48.172;8.058;2022-10-16T08:27:32;15.90;99.90
13892;DHT22;7016;48.172;8.058;2022-10-16T08:29:57;16.00;99.90
13892;DHT22;7016;48.172;8.058;2022-10-16T08:32:23;16.00;99.90
13892;DHT22;7016;48.172;8.058;2022-10-16T08:34:49;16.10;99.90
13892;DHT22;7016;48.172;8.058;2022-10-16T08:37:15;16.00;99.90
13892;DHT22;7016;48.172;8.058;2022-10-16T08:39:40;16.10;99.90
13892;DHT22;7016;48.172;8.058;2022-10-16T08:50:30;16.20;99.90
13892;DHT22;7016;48.172;8.058;2022-10-16T08:52:57;16.20;99.90
13892;DHT22;7016;48.172;8.058;2022-10-16T08:56:08;16.30;99.90
13892;DHT22;7016;48.172;8.058;2022-10-16T08:58:19;16.40;99.90
13892;DHT22;7016;48.172;8.058;2022-10-16T09:00:52;16.50;99.90
13892;DHT22;7016;48.172;8.058;2022-10-16T09:11:37;16.70;99.90
13892;DHT22;7016;48.172;8.058;2022-10-16T09:25:29;16.80;99.90
13892;DHT22;7016;48.172;8.058;2022-10-16T09:27:55;16.90;99.90
13892;DHT22;7016;48.172;8.058;2022-10-16T09:30:22;16.90;99.90
13892;DHT22;7016;48.172;8.058;2022-10-16T09:32:52;16.90;99.90
13892;DHT22;7016;48.172;8.058;2022-10-16T09:35:46;16.90;99.90
13892;DHT22;7016;48.172;8.058;2022-10-16T09:38:26;16.90;99.90
13892;DHT22;7016;48.172;8.058;2022-10-16T09:40:54;17.00;99.90
13892;DHT22;7016;48.172;8.058;2022-10-16T09:46:03;17.20;99.90
13892;DHT22;7016;48.172;8.058;2022-10-16T09:48:49;17.30;99.90
13892;DHT22;7016;48.172;8.058;2022-10-16T09:54:17;17.40;99.90
13892;DHT22;7016;48.172;8.058;2022-10-16T09:56:40;17.60;99.90
13892;DHT22;7016;48.172;8.058;2022-10-16T09:59:15;17.70;99.90
13892;DHT22;7016;48.172;8.058;2022-10-16T10:04:10;17.90;99.90
13892;DHT22;7016;48.172;8.058;2022-10-16T10:06:46;18.00;99.90
13892;DHT22;7016;48.172;8.058;2022-10-16T10:14:35;18.30;99.90
13892;DHT22;7016;48.172;8.058;2022-10-16T10:20:00;18.40;99.90
13892;DHT22;7016;48.172;8.058;2022-10-16T10:22:41;18.60;99.90
13892;DHT22;7016;48.172;8.058;2022-10-16T10:38:51;19.20;99.90
13892;DHT22;7016;48.172;8.058;2022-10-16T10:46:57;19.40;99.90
13892;DHT22;7016;48.172;8.058;2022-10-16T11:06:26;19.80;99.90
13892;DHT22;7016;48.172;8.058;2022-10-16T11:11:43;19.80;99.90
13892;DHT22;7016;48.172;8.058;2022-10-16T11:14:22;19.90;99.90
13892;DHT22;7016;48.172;8.058;2022-10-16T11:16:56;19.90;99.90
13892;DHT22;7016;48.172;8.058;2022-10-16T11:25:19;19.80;99.90
13892;DHT22;7016;48.172;8.058;2022-10-16T11:28:01;19.90;99.90
13892;DHT22;7016;48.172;8.058;2022-10-16T11:30:30;19.80;99.90
13892;DHT22;7016;48.172;8.058;2022-10-16T11:36:16;19.80;99.90
13892;DHT22;7016;48.172;8.058;2022-10-16T11:38:58;19.80;99.90
13892;DHT22;7016;48.172;8.058;2022-10-16T11:44:38;19.80;99.90
13892;DHT22;7016;48.172;8.058;2022-10-16T11:49:37;20.00;99.90
13892;DHT22;7016;48.172;8.058;2022-10-16T11:54:53;20.10;99.90
13892;DHT22;7016;48.172;8.058;2022-10-16T11:57:27;20.10;99.90
13892;DHT22;7016;48.172;8.058;2022-10-16T12:00:10;20.00;99.90
13892;DHT22;7016;48.172;8.058;2022-10-16T12:03:00;20.10;99.90
13892;DHT22;7016;48.172;8.058;2022-10-16T12:08:18;20.20;99.90
13892;DHT22;7016;48.172;8.058;2022-10-16T12:10:46;20.20;99.90
13892;DHT22;7016;48.172;8.058;2022-10-16T12:13:34;20.20;99.90
13892;DHT22;7016;48.172;8.058;2022-10-16T12:18:39;20.10;99.90
13892;DHT22;7016;48.172;8.058;2022-10-16T12:21:06;20.20;99.90
13892;DHT22;7016;48.172;8.058;2022-10-16T12:23:37;20.20;99.90
13892;DHT22;7016;48.172;8.058;2022-10-16T12:26:04;20.20;99.90
13892;DHT22;7016;48.172;8.058;2022-10-16T12:28:32;20.20;99.90
13892;DHT22;7016;48.172;8.058;2022-10-16T12:31:06;20.20;99.90
13892;DHT22;7016;48.172;8.058;2022-10-16T12:33:34;20.20;99.90
13892;DHT22;7016;48.172;8.058;2022-10-16T12:36:05;20.20;99.90
13892;DHT22;7016;48.172;8.058;2022-10-16T12:41:08;20.20;99.90
13892;DHT22;7016;48.172;8.058;2022-10-16T12:43:38;20.20;99.90
13892;DHT22;7016;48.172;8.058;2022-10-16T12:46:22;20.30;99.90
13892;DHT22;7016;48.172;8.058;2022-10-16T12:48:48;20.30;99.90
13892;DHT22;7016;48.172;8.058;2022-10-16T12:54:28;20.30;99.90
13892;DHT22;7016;48.172;8.058;2022-10-16T13:08:53;20.40;99.90
13892;DHT22;7016;48.172;8.058;2022-10-16T13:14:03;20.40;99.90
13892;DHT22;7016;48.172;8.058;2022-10-16T13:25:01;20.60;99.90
13892;DHT22;7016;48.172;8.058;2022-10-16T13:30:30;20.60;99.90
13892;DHT22;7016;48.172;8.058;2022-10-16T13:33:06;20.60;99.90
13892;DHT22;7016;48.172;8.058;2022-10-16T13:35:34;20.50;99.90
13892;DHT22;7016;48.172;8.058;2022-10-16T13:38:27;20.50;99.90
13892;DHT22;7016;48.172;8.058;2022-10-16T13:46:01;20.50;99.90
13892;DHT22;7016;48.172;8.058;2022-10-16T13:48:29;20.40;99.90
13892;DHT22;7016;48.172;8.058;2022-10-16T13:51:16;20.30;99.90
13892;DHT22;7016;48.172;8.058;2022-10-16T13:53:43;20.30;99.90
13892;DHT22;7016;48.172;8.058;2022-10-16T13:56:18;20.40;99.90
13892;DHT22;7016;48.172;8.058;2022-10-16T13:58:44;20.40;99.90
13892;DHT22;7016;48.172;8.058;2022-10-16T14:01:20;20.50;99.90
13892;DHT22;7016;48.172;8.058;2022-10-16T14:03:51;20.50;99.90
13892;DHT22;7016;48.172;8.058;2022-10-16T14:06:20;20.60;99.90
13892;DHT22;7016;48.172;8.058;2022-10-16T14:09:03;20.50;99.90
13892;DHT22;7016;48.172;8.058;2022-10-16T14:11:30;20.40;99.90
13892;DHT22;7016;48.172;8.058;2022-10-16T14:13:56;20.40;99.90
13892;DHT22;7016;48.172;8.058;2022-10-16T14:16:25;20.50;99.90
13892;DHT22;7016;48.172;8.058;2022-10-16T14:19:00;20.40;99.90
13892;DHT22;7016;48.172;8.058;2022-10-16T14:21:27;20.50;99.90
13892;DHT22;7016;48.172;8.058;2022-10-16T14:23:53;20.50;99.90
13892;DHT22;7016;48.172;8.058;2022-10-16T14:26:23;20.50;99.90
13892;DHT22;7016;48.172;8.058;2022-10-16T14:29:00;20.50;99.90
13892;DHT22;7016;48.172;8.058;2022-10-16T14:31:28;20.50;99.90
13892;DHT22;7016;48.172;8.058;2022-10-16T14:33:54;20.50;99.90
13892;DHT22;7016;48.172;8.058;2022-10-16T14:36:20;20.50;99.90
13892;DHT22;7016;48.172;8.058;2022-10-16T14:39:02;20.50;99.90
13892;DHT22;7016;48.172;8.058;2022-10-16T14:41:30;20.50;99.90
13892;DHT22;7016;48.172;8.058;2022-10-16T14:44:01;20.50;99.90
13892;DHT22;7016;48.172;8.058;2022-10-16T14:46:39;20.40;99.90
13892;DHT22;7016;48.172;8.058;2022-10-16T14:51:34;20.40;99.90
13892;DHT22;7016;48.172;8.058;2022-10-16T14:54:00;20.40;99.90
13892;DHT22;7016;48.172;8.058;2022-10-16T14:56:30;20.30;99.90
13892;DHT22;7016;48.172;8.058;2022-10-16T14:59:00;20.30;99.90
13892;DHT22;7016;48.172;8.058;2022-10-16T15:01:26;20.10;99.90
13892;DHT22;7016;48.172;8.058;2022-10-16T15:03:53;20.00;99.90
13892;DHT22;7016;48.172;8.058;2022-10-16T15:06:20;20.10;99.90
13892;DHT22;7016;48.172;8.058;2022-10-16T15:08:46;20.20;99.90
13892;DHT22;7016;48.172;8.058;2022-10-16T15:11:17;20.10;99.90
13892;DHT22;7016;48.172;8.058;2022-10-16T15:13:44;20.00;99.90
13892;DHT22;7016;48.172;8.058;2022-10-16T15:16:15;19.80;99.90
13892;DHT22;7016;48.172;8.058;2022-10-16T15:18:42;19.70;99.90
13892;DHT22;7016;48.172;8.058;2022-10-16T15:21:08;19.80;99.90
13892;DHT22;7016;48.172;8.058;2022-10-16T15:23:34;19.80;99.90
13892;DHT22;7016;48.172;8.058;2022-10-16T15:26:00;19.70;99.90
13892;DHT22;7016;48.172;8.058;2022-10-16T15:28:26;19.60;99.90
13892;DHT22;7016;48.172;8.058;2022-10-16T15:30:54;19.40;99.90
13892;DHT22;7016;48.172;8.058;2022-10-16T15:33:26;19.40;99.90
13892;DHT22;7016;48.172;8.058;2022-10-16T15:35:54;19.50;99.90
13892;DHT22;7016;48.172;8.058;2022-10-16T15:38:21;19.60;99.90
13892;DHT22;7016;48.172;8.058;2022-10-16T15:40:48;19.50;99.90
13892;DHT22;7016;48.172;8.058;2022-10-16T15:43:15;19.50;99.90
13892;DHT22;7016;48.172;8.058;2022-10-16T15:45:41;19.50;99.90
13892;DHT22;7016;48.172;8.058;2022-10-16T15:48:11;19.60;99.90
13892;DHT22;7016;48.172;8.058;2022-10-16T15:50:38;19.60;99.90
13892;DHT22;7016;48.172;8.058;2022-10-16T15:53:04;19.60;99.90
13892;DHT22;7016;48.172;8.058;2022-10-16T15:55:29;19.50;99.90
13892;DHT22;7016;48.172;8.058;2022-10-16T15:57:55;19.50;99.90
13892;DHT22;7016;48.172;8.058;2022-10-16T16:00:21;19.30;99.90
13892;DHT22;7016;48.172;8.058;2022-10-16T16:02:52;19.10;99.90
13892;DHT22;7016;48.172;8.058;2022-10-16T16:05:19;19.10;99.90
13892;DHT22;7016;48.172;8.058;2022-10-16T16:07:45;19.00;99.90
13892;DHT22;7016;48.172;8.058;2022-10-16T16:10:11;19.00;99.90
13892;DHT22;7016;48.172;8.058;2022-10-16T16:12:37;18.80;99.90
13892;DHT22;7016;48.172;8.058;2022-10-16T16:15:07;18.70;99.90
13892;DHT22;7016;48.172;8.058;2022-10-16T16:17:34;18.80;99.90
13892;DHT22;7016;48.172;8.058;2022-10-16T16:20:00;18.70;99.90
13892;DHT22;7016;48.172;8.058;2022-10-16T16:22:26;18.60;99.90
13892;DHT22;7016;48.172;8.058;2022-10-16T16:24:52;18.50;99.90
13892;DHT22;7016;48.172;8.058;2022-10-16T16:27:18;18.80;99.90
13892;DHT22;7016;48.172;8.058;2022-10-16T16:29:45;18.50;99.90
13892;DHT22;7016;48.172;8.058;2022-10-16T16:32:11;18.50;99.90
13892;DHT22;7016;48.172;8.058;2022-10-16T16:34:37;18.50;99.90
13892;DHT22;7016;48.172;8.058;2022-10-16T16:37:03;18.50;99.90
13892;DHT22;7016;48.172;8.058;2022-10-16T16:39:28;18.50;99.90
13892;DHT22;7016;48.172;8.058;2022-10-16T16:41:56;18.30;99.90
13892;DHT22;7016;48.172;8.058;2022-10-16T16:44:22;18.30;99.90
13892;DHT22;7016;48.172;8.058;2022-10-16T16:46:47;18.20;99.90
13892;DHT22;7016;48.172;8.058;2022-10-16T16:49:14;18.00;99.90
13892;DHT22;7016;48.172;8.058;2022-10-16T16:51:40;17.90;99.90
13892;DHT22;7016;48.172;8.058;2022-10-16T16:54:07;17.90;99.90
13892;DHT22;7016;48.172;8.058;2022-10-16T16:56:34;17.90;99.90
13892;DHT22;7016;48.172;8.058;2022-10-16T16:59:00;17.90;99.90
13892;DHT22;7016;48.172;8.058;2022-10-16T17:01:26;17.80;99.90
13892;DHT22;7016;48.172;8.058;2022-10-16T17:03:55;17.80;99.90
13892;DHT22;7016;48.172;8.058;2022-10-16T17:06:24;17.80;99.90
13892;DHT22;7016;48.172;8.058;2022-10-16T17:08:50;17.80;99.90
13892;DHT22;7016;48.172;8.058;2022-10-16T17:11:19;17.60;99.90
13892;DHT22;7016;48.172;8.058;2022-10-16T17:13:45;17.60;99.90
13892;DHT22;7016;48.172;8.058;2022-10-16T17:16:11;17.50;99.90
13892;DHT22;7016;48.172;8.058;2022-10-16T17:18:37;17.50;99.90
13892;DHT22;7016;48.172;8.058;2022-10-16T17:21:07;17.60;99.90
13892;DHT22;7016;48.172;8.058;2022-10-16T17:23:33;17.60;99.90
13892;DHT22;7016;48.172;8.058;2022-10-16T17:26:08;17.50;99.90
13892;DHT22;7016;48.172;8.058;2022-10-16T17:28:34;17.50;99.90
13892;DHT22;7016;48.172;8.058;2022-10-16T17:31:15;17.40;99.90
13892;DHT22;7016;48.172;8.058;2022-10-16T17:33:41;17.40;99.90
13892;DHT22;7016;48.172;8.058;2022-10-16T17:36:08;17.40;99.90
13892;DHT22;7016;48.172;8.058;2022-10-16T17:38:34;17.30;99.90
13892;DHT22;7016;48.172;8.058;2022-10-16T17:43:37;17.10;99.90
13892;DHT22;7016;48.172;8.058;2022-10-16T17:46:04;17.10;99.90
13892;DHT22;7016;48.172;8.058;2022-10-16T17:48:30;17.00;99.90
13892;DHT22;7016;48.172;8.058;2022-10-16T17:50:56;17.00;99.90
13892;DHT22;7016;48.172;8.058;2022-10-16T17:53:22;17.00;99.90
13892;DHT22;7016;48.172;8.058;2022-10-16T17:55:47;17.10;99.90
13892;DHT22;7016;48.172;8.058;2022-10-16T17:58:13;17.00;99.90
13892;DHT22;7016;48.172;8.058;2022-10-16T18:00:39;16.90;99.90
13892;DHT22;7016;48.172;8.058;2022-10-16T18:03:04;16.90;99.90
13892;DHT22;7016;48.172;8.058;2022-10-16T18:05:30;16.90;99.90
13892;DHT22;7016;48.172;8.058;2022-10-16T18:07:56;16.80;99.90
13892;DHT22;7016;48.172;8.058;2022-10-16T18:10:22;16.70;99.90
13892;DHT22;7016;48.172;8.058;2022-10-16T18:12:48;16.60;99.90
13892;DHT22;7016;48.172;8.058;2022-10-16T18:15:14;16.70;99.90
13892;DHT22;7016;48.172;8.058;2022-10-16T18:17:40;16.60;99.90
13892;DHT22;7016;48.172;8.058;2022-10-16T18:20:07;16.50;99.90
13892;DHT22;7016;48.172;8.058;2022-10-16T18:22:33;16.40;99.90
13892;DHT22;7016;48.172;8.058;2022-10-16T18:25:06;16.30;99.90
13892;DHT22;7016;48.172;8.058;2022-10-16T18:27:32;16.30;99.90
13892;DHT22;7016;48.172;8.058;2022-10-16T18:29:59;16.30;99.90
13892;DHT22;7016;48.172;8.058;2022-10-16T18:32:25;16.30;99.90
13892;DHT22;7016;48.172;8.058;2022-10-16T18:34:51;16.30;99.90
13892;DHT22;7016;48.172;8.058;2022-10-16T18:37:18;16.30;99.90
13892;DHT22;7016;48.172;8.058;2022-10-16T18:39:48;16.30;99.90
13892;DHT22;7016;48.172;8.058;2022-10-16T18:42:15;16.30;99.90
13892;DHT22;7016;48.172;8.058;2022-10-16T18:44:41;16.20;99.90